Weather at Dillant Hopkins Airport

Public forecast

Using degrees Fahrenheit for public forecast. Weather courtesy of forecast.io.

Current aviation weather report (METAR) for Dillant Hopkins Airport

Retrieved 2020/10/28 05:10 UTC (6 minutes ago):

KEEN 280510Z AUTO 00000KT 10SM SCT024 OVC033 05/04 A3016 RMK AO2 PNO

Closest aviation forecast (TAF) to Dillant Hopkins Airport

Closest forecast is Manchester-Boston Regional Airport, 36.8 nm (68.1 km) E. Retrieved 2020-10-28 00:22 UTC (5 hours ago):

TAF KMHT 272320Z 2800/2824 35005KT P6SM FEW045 OVC100 FM280200 VRB02KT P6SM OVC050 FM280700 00000KT P6SM -DZ OVC025 FM280900 VRB03KT 4SM -RA BR OVC015 FM281600 14003KT 2SM BR OVC007